RGN226 LEPA-EDDP
Flight info
| Callsign | RGN226 |
|---|---|
| Flight time | N/A |
| Altitude | 34000 |
| Route | ISTER4A ISTER DCT NIVDA DCT OMEDA/N0455F360 DCT RAPUR DCT TORTU DCT ERTEV DCT GOLAS DCT TAGIP DCT BRENO DCT KONIN DCT ERNAS M726 LASGA T953 VOCIM/N0459F350 T954 GOXLI GOXLI1R |
| Aircraft | B752/M-SDE2E3FGHIJ3J4J7RWXY/LB1 |
Departure
| Time | 2026-04-30 19:18 |
|---|---|
| Airport | Palma de Mallorca Airport (LEPA) |
Arrival
| Time | N/A |
|---|---|
| Airport | Leipzig/Halle Airport (EDDP) |
| Time | Latitude | Longitude | Altitude | Speed | Heading |
|---|---|---|---|---|---|
| 2026-04-30 18:51 | 39.54689 | 2.71792 | 33 ft | 0 kts | 328° |
| 2026-04-30 19:09 | 39.54697 | 2.71786 | 32 ft | 4 kts | 328° |
| 2026-04-30 19:09 | 39.54728 | 2.71767 | 32 ft | 5 kts | 351° |
| 2026-04-30 19:09 | 39.54778 | 2.71760 | 32 ft | 9 kts | 346° |
| 2026-04-30 19:10 | 39.54968 | 2.72051 | 32 ft | 30 kts | 59° |
| 2026-04-30 19:10 | 39.55197 | 2.72536 | 32 ft | 31 kts | 58° |
| 2026-04-30 19:11 | 39.55324 | 2.72803 | 32 ft | 36 kts | 59° |
| 2026-04-30 19:11 | 39.55613 | 2.73414 | 32 ft | 42 kts | 58° |
| 2026-04-30 19:11 | 39.55759 | 2.73723 | 32 ft | 37 kts | 57° |
| 2026-04-30 19:12 | 39.55873 | 2.73966 | 32 ft | 25 kts | 58° |
| 2026-04-30 19:12 | 39.55959 | 2.74146 | 32 ft | 15 kts | 59° |
| 2026-04-30 19:12 | 39.55998 | 2.74221 | 32 ft | 5 kts | 37° |
| 2026-04-30 19:13 | 39.56059 | 2.74271 | 32 ft | 5 kts | 33° |
| 2026-04-30 19:13 | 39.56083 | 2.74291 | 32 ft | 5 kts | 33° |
| 2026-04-30 19:13 | 39.56124 | 2.74326 | 32 ft | 5 kts | 32° |
| 2026-04-30 19:14 | 39.56126 | 2.74328 | 32 ft | 0 kts | 32° |
| 2026-04-30 19:15 | 39.56131 | 2.74332 | 32 ft | 3 kts | 32° |
| 2026-04-30 19:15 | 39.56182 | 2.74357 | 32 ft | 11 kts | 357° |
| 2026-04-30 19:16 | 39.56221 | 2.74267 | 32 ft | 15 kts | 250° |
| 2026-04-30 19:16 | 39.56215 | 2.74251 | 32 ft | 0 kts | 242° |
| 2026-04-30 19:17 | 39.56214 | 2.74249 | 32 ft | 1 kts | 242° |
| 2026-04-30 19:17 | 39.56151 | 2.74110 | 32 ft | 46 kts | 238° |
| 2026-04-30 19:18 | 39.55535 | 2.72816 | 33 ft | 153 kts | 238° |
| 2026-04-30 19:18 | 39.54777 | 2.71095 | 741 ft | 173 kts | 243° |
| 2026-04-30 19:18 | 39.54243 | 2.69685 | 1462 ft | 182 kts | 243° |
| 2026-04-30 19:19 | 39.53629 | 2.68146 | 2092 ft | 200 kts | 240° |
| 2026-04-30 19:19 | 39.52952 | 2.66574 | 2835 ft | 207 kts | 240° |
| 2026-04-30 19:19 | 39.51373 | 2.63284 | 4030 ft | 218 kts | 238° |
| 2026-04-30 19:20 | 39.50549 | 2.61616 | 4667 ft | 220 kts | 238° |
| 2026-04-30 19:20 | 39.49707 | 2.59936 | 5057 ft | 228 kts | 233° |
| 2026-04-30 19:20 | 39.46989 | 2.57607 | 5014 ft | 237 kts | 206° |
| 2026-04-30 19:21 | 39.45413 | 2.57135 | 5038 ft | 235 kts | 174° |
| 2026-04-30 19:21 | 39.42224 | 2.58129 | 5016 ft | 234 kts | 158° |
| 2026-04-30 19:22 | 39.39391 | 2.60262 | 5021 ft | 234 kts | 141° |
| 2026-04-30 19:22 | 39.35678 | 2.64384 | 5034 ft | 245 kts | 135° |
| 2026-04-30 19:23 | 39.34913 | 2.70608 | 6771 ft | 261 kts | 54° |
| 2026-04-30 19:24 | 39.36614 | 2.74788 | 8332 ft | 273 kts | 70° |
| 2026-04-30 19:24 | 39.37139 | 2.77155 | 9118 ft | 278 kts | 74° |
| 2026-04-30 19:24 | 39.37966 | 2.82165 | 10405 ft | 298 kts | 78° |
| 2026-04-30 19:25 | 39.39154 | 2.91100 | 11702 ft | 355 kts | 79° |
| 2026-04-30 19:26 | 39.39962 | 2.97498 | 13344 ft | 366 kts | 79° |
| 2026-04-30 19:26 | 39.40783 | 3.04055 | 14949 ft | 375 kts | 79° |
| 2026-04-30 19:26 | 39.41199 | 3.07401 | 15675 ft | 379 kts | 79° |
| 2026-04-30 19:27 | 39.42045 | 3.14218 | 17009 ft | 387 kts | 79° |
| 2026-04-30 19:27 | 39.42900 | 3.21144 | 18268 ft | 395 kts | 79° |
| 2026-04-30 19:28 | 39.43445 | 3.24641 | 18871 ft | 397 kts | 70° |
| 2026-04-30 19:28 | 39.45987 | 3.31015 | 20043 ft | 401 kts | 57° |
| 2026-04-30 19:29 | 39.48849 | 3.37275 | 21186 ft | 408 kts | 57° |
| 2026-04-30 19:29 | 39.50313 | 3.40468 | 21740 ft | 412 kts | 57° |
| 2026-04-30 19:30 | 39.54757 | 3.50162 | 23316 ft | 422 kts | 56° |
| 2026-04-30 19:30 | 39.57787 | 3.56785 | 24322 ft | 428 kts | 56° |
| 2026-04-30 19:31 | 39.60837 | 3.63464 | 25258 ft | 435 kts | 56° |
| 2026-04-30 19:31 | 39.62382 | 3.66852 | 25691 ft | 438 kts | 57° |
| 2026-04-30 19:31 | 39.65480 | 3.73660 | 26547 ft | 444 kts | 57° |
| 2026-04-30 19:32 | 39.67072 | 3.77165 | 26971 ft | 447 kts | 57° |
| 2026-04-30 19:32 | 39.68655 | 3.80652 | 27376 ft | 450 kts | 57° |
| 2026-04-30 19:32 | 39.70254 | 3.84178 | 27759 ft | 453 kts | 57° |
| 2026-04-30 19:32 | 39.71851 | 3.87706 | 28137 ft | 455 kts | 57° |
| 2026-04-30 19:33 | 39.73461 | 3.91265 | 28512 ft | 458 kts | 57° |
| 2026-04-30 19:33 | 39.75082 | 3.94852 | 28870 ft | 461 kts | 57° |
| 2026-04-30 19:33 | 39.76701 | 3.98440 | 29221 ft | 463 kts | 57° |
| 2026-04-30 19:33 | 39.78310 | 4.02009 | 29570 ft | 465 kts | 57° |
| 2026-04-30 19:34 | 39.79970 | 4.05697 | 29900 ft | 468 kts | 57° |
| 2026-04-30 19:34 | 39.81620 | 4.09366 | 30077 ft | 471 kts | 57° |
| 2026-04-30 19:35 | 39.86578 | 4.20418 | 30075 ft | 469 kts | 57° |
| 2026-04-30 19:35 | 39.89890 | 4.27797 | 30072 ft | 469 kts | 57° |
| 2026-04-30 19:36 | 39.93174 | 4.35126 | 30076 ft | 470 kts | 57° |
| 2026-04-30 19:36 | 39.98118 | 4.46190 | 30073 ft | 469 kts | 57° |
| 2026-04-30 19:37 | 40.01385 | 4.53525 | 30074 ft | 470 kts | 57° |
| 2026-04-30 19:37 | 40.04659 | 4.60891 | 30074 ft | 470 kts | 57° |
| 2026-04-30 19:38 | 40.08173 | 4.68033 | 30077 ft | 466 kts | 48° |
| 2026-04-30 19:38 | 40.12303 | 4.74560 | 30075 ft | 466 kts | 47° |
| 2026-04-30 19:39 | 40.16445 | 4.81089 | 30074 ft | 465 kts | 47° |
| 2026-04-30 19:39 | 40.20581 | 4.87610 | 30075 ft | 464 kts | 47° |
| 2026-04-30 19:40 | 40.24712 | 4.94129 | 30075 ft | 460 kts | 46° |
| 2026-04-30 19:40 | 40.28771 | 5.00545 | 30075 ft | 456 kts | 46° |
| 2026-04-30 19:41 | 40.32813 | 5.06946 | 30075 ft | 453 kts | 45° |
| 2026-04-30 19:41 | 40.36825 | 5.13309 | 30076 ft | 454 kts | 45° |
| 2026-04-30 19:42 | 40.40858 | 5.19722 | 30075 ft | 454 kts | 45° |
| 2026-04-30 19:42 | 40.44888 | 5.26144 | 30075 ft | 454 kts | 45° |
| 2026-04-30 19:43 | 40.48914 | 5.32573 | 30075 ft | 454 kts | 45° |
| 2026-04-30 19:44 | 40.54922 | 5.42193 | 30075 ft | 454 kts | 45° |
| 2026-04-30 19:44 | 40.58913 | 5.48599 | 30075 ft | 454 kts | 45° |
| 2026-04-30 19:45 | 40.62928 | 5.55058 | 30075 ft | 454 kts | 45° |
| 2026-04-30 19:45 | 40.66936 | 5.61518 | 30075 ft | 454 kts | 45° |
| 2026-04-30 19:46 | 40.70941 | 5.67989 | 30071 ft | 454 kts | 46° |
| 2026-04-30 19:46 | 40.74925 | 5.74437 | 30071 ft | 454 kts | 46° |
| 2026-04-30 19:47 | 40.78933 | 5.80937 | 30071 ft | 454 kts | 46° |
| 2026-04-30 19:47 | 40.82904 | 5.87393 | 30071 ft | 454 kts | 46° |
| 2026-04-30 19:48 | 40.86886 | 5.93880 | 30071 ft | 454 kts | 46° |
| 2026-04-30 19:48 | 40.90869 | 6.00382 | 30071 ft | 454 kts | 46° |
| 2026-04-30 19:49 | 40.94821 | 6.06848 | 30076 ft | 454 kts | 46° |
| 2026-04-30 19:49 | 41.00790 | 6.16642 | 30108 ft | 455 kts | 46° |
| 2026-04-30 19:50 | 41.04770 | 6.23188 | 30134 ft | 456 kts | 45° |
| 2026-04-30 19:50 | 41.08734 | 6.29720 | 30147 ft | 458 kts | 45° |
| 2026-04-30 19:51 | 41.12733 | 6.36325 | 30152 ft | 460 kts | 45° |
| 2026-04-30 19:51 | 41.16753 | 6.42978 | 30143 ft | 460 kts | 45° |
| 2026-04-30 19:52 | 41.20750 | 6.49608 | 30146 ft | 460 kts | 45° |
| 2026-04-30 19:52 | 41.24739 | 6.56238 | 30151 ft | 460 kts | 44° |
| 2026-04-30 19:53 | 41.28777 | 6.62742 | 30144 ft | 459 kts | 44° |
| 2026-04-30 19:53 | 41.32858 | 6.69307 | 30131 ft | 459 kts | 44° |
| 2026-04-30 19:54 | 41.36931 | 6.75873 | 30136 ft | 459 kts | 44° |
| 2026-04-30 19:54 | 41.40984 | 6.82422 | 30139 ft | 459 kts | 44° |
| 2026-04-30 19:55 | 41.45055 | 6.89014 | 30130 ft | 459 kts | 44° |
| 2026-04-30 19:55 | 41.49105 | 6.95586 | 30108 ft | 459 kts | 44° |
| 2026-04-30 19:56 | 41.53136 | 7.02142 | 30100 ft | 458 kts | 44° |
| 2026-04-30 19:56 | 41.57182 | 7.08737 | 30101 ft | 458 kts | 44° |
| 2026-04-30 19:57 | 41.61200 | 7.15300 | 30101 ft | 457 kts | 44° |
| 2026-04-30 19:57 | 41.65227 | 7.21893 | 30101 ft | 456 kts | 44° |
| 2026-04-30 19:58 | 41.69230 | 7.28458 | 30105 ft | 456 kts | 44° |
| 2026-04-30 19:58 | 41.73220 | 7.35017 | 30112 ft | 456 kts | 44° |
| 2026-04-30 19:59 | 41.77211 | 7.41591 | 30123 ft | 456 kts | 44° |
| 2026-04-30 20:00 | 41.83215 | 7.51508 | 30128 ft | 456 kts | 44° |
| 2026-04-30 20:00 | 41.87227 | 7.58153 | 30128 ft | 456 kts | 44° |
| 2026-04-30 20:01 | 41.93219 | 7.68105 | 30121 ft | 457 kts | 45° |
| 2026-04-30 20:01 | 41.97186 | 7.74713 | 30121 ft | 457 kts | 45° |
| 2026-04-30 20:02 | 42.03155 | 7.84681 | 30121 ft | 457 kts | 45° |
| 2026-04-30 20:03 | 42.09130 | 7.94694 | 30122 ft | 457 kts | 45° |
| 2026-04-30 20:03 | 42.13100 | 8.01364 | 30139 ft | 457 kts | 45° |
| 2026-04-30 20:04 | 42.17059 | 8.08032 | 30145 ft | 456 kts | 45° |
| 2026-04-30 20:05 | 42.22990 | 8.18048 | 30155 ft | 456 kts | 45° |
| 2026-04-30 20:05 | 42.28926 | 8.28105 | 30128 ft | 458 kts | 45° |
| 2026-04-30 20:06 | 42.33157 | 8.34412 | 30111 ft | 446 kts | 32° |
| 2026-04-30 20:06 | 42.38396 | 8.38557 | 30111 ft | 433 kts | 17° |
| 2026-04-30 20:07 | 42.43950 | 8.41740 | 30122 ft | 432 kts | 17° |
| 2026-04-30 20:08 | 42.52272 | 8.46414 | 30180 ft | 432 kts | 16° |
| 2026-04-30 20:08 | 42.57813 | 8.49508 | 30211 ft | 432 kts | 16° |
| 2026-04-30 20:09 | 42.63364 | 8.52608 | 30211 ft | 432 kts | 16° |
| 2026-04-30 20:09 | 42.71669 | 8.57253 | 30211 ft | 432 kts | 16° |
| 2026-04-30 20:10 | 42.79855 | 8.61844 | 30210 ft | 432 kts | 16° |
| 2026-04-30 20:11 | 42.88060 | 8.66458 | 30203 ft | 432 kts | 17° |
| 2026-04-30 20:11 | 42.93607 | 8.69582 | 30204 ft | 438 kts | 17° |
| 2026-04-30 20:12 | 42.99063 | 8.72662 | 30203 ft | 443 kts | 17° |
| 2026-04-30 20:13 | 43.04802 | 8.75909 | 30204 ft | 449 kts | 17° |
| 2026-04-30 20:13 | 43.10543 | 8.79166 | 30204 ft | 447 kts | 17° |
| 2026-04-30 20:14 | 43.16254 | 8.82412 | 30210 ft | 448 kts | 17° |
| 2026-04-30 20:14 | 43.21990 | 8.85678 | 30210 ft | 448 kts | 17° |
| 2026-04-30 20:15 | 43.27762 | 8.88971 | 30210 ft | 448 kts | 17° |
| 2026-04-30 20:15 | 43.33440 | 8.92217 | 30209 ft | 446 kts | 17° |
| 2026-04-30 20:16 | 43.39265 | 8.95042 | 30216 ft | 438 kts | 6° |
| 2026-04-30 20:16 | 43.45253 | 8.95597 | 30210 ft | 432 kts | 356° |
| 2026-04-30 20:17 | 43.51258 | 8.95670 | 30209 ft | 432 kts | 356° |
| 2026-04-30 20:17 | 43.57265 | 8.95697 | 30208 ft | 431 kts | 356° |
| 2026-04-30 20:18 | 43.63266 | 8.96226 | 30215 ft | 438 kts | 7° |
| 2026-04-30 20:18 | 43.68959 | 8.99311 | 30215 ft | 449 kts | 24° |
| 2026-04-30 20:19 | 43.74387 | 9.03582 | 30207 ft | 447 kts | 24° |
| 2026-04-30 20:19 | 43.79786 | 9.07868 | 30207 ft | 447 kts | 25° |
| 2026-04-30 20:20 | 43.85182 | 9.12176 | 30207 ft | 445 kts | 25° |
| 2026-04-30 20:20 | 43.90509 | 9.16442 | 30207 ft | 445 kts | 25° |
| 2026-04-30 20:21 | 43.95892 | 9.20765 | 30207 ft | 446 kts | 25° |
| 2026-04-30 20:21 | 44.01263 | 9.25088 | 30207 ft | 446 kts | 25° |
| 2026-04-30 20:22 | 44.06611 | 9.29402 | 30206 ft | 445 kts | 25° |
| 2026-04-30 20:22 | 44.11907 | 9.33682 | 30214 ft | 446 kts | 25° |
| 2026-04-30 20:23 | 44.17161 | 9.37938 | 30214 ft | 445 kts | 25° |
| 2026-04-30 20:23 | 44.22533 | 9.42297 | 30214 ft | 446 kts | 25° |
| 2026-04-30 20:24 | 44.27882 | 9.46649 | 30214 ft | 446 kts | 25° |
| 2026-04-30 20:24 | 44.33219 | 9.51000 | 30213 ft | 445 kts | 25° |
| 2026-04-30 20:25 | 44.41258 | 9.57570 | 30213 ft | 445 kts | 25° |
| 2026-04-30 20:26 | 44.49314 | 9.63848 | 30214 ft | 442 kts | 21° |
| 2026-04-30 20:26 | 44.57502 | 9.69605 | 30225 ft | 443 kts | 22° |
| 2026-04-30 20:27 | 44.67217 | 9.76487 | 30279 ft | 442 kts | 22° |
| 2026-04-30 20:28 | 44.77478 | 9.83788 | 30313 ft | 443 kts | 22° |
| 2026-04-30 20:30 | 44.91186 | 9.93588 | 30314 ft | 443 kts | 22° |
| 2026-04-30 20:31 | 45.07715 | 10.05477 | 30112 ft | 448 kts | 21° |
| 2026-04-30 20:32 | 45.21571 | 10.15501 | 30087 ft | 451 kts | 20° |
| 2026-04-30 20:33 | 45.29906 | 10.21559 | 30166 ft | 451 kts | 20° |
| 2026-04-30 20:34 | 45.38235 | 10.27632 | 30246 ft | 450 kts | 20° |
| 2026-04-30 20:35 | 45.46550 | 10.33714 | 30320 ft | 450 kts | 20° |
| 2026-04-30 20:35 | 45.54866 | 10.39819 | 30321 ft | 450 kts | 20° |
| 2026-04-30 20:36 | 45.60395 | 10.43888 | 30320 ft | 451 kts | 20° |
| 2026-04-30 20:37 | 45.68720 | 10.50033 | 30279 ft | 451 kts | 20° |
| 2026-04-30 20:37 | 45.74263 | 10.54137 | 30288 ft | 449 kts | 20° |
| 2026-04-30 20:38 | 45.79810 | 10.58252 | 30319 ft | 450 kts | 20° |
| 2026-04-30 20:38 | 45.85326 | 10.62354 | 30319 ft | 450 kts | 20° |
| 2026-04-30 20:39 | 45.93462 | 10.68419 | 30311 ft | 451 kts | 21° |
| 2026-04-30 20:40 | 46.01896 | 10.73920 | 30291 ft | 448 kts | 18° |
| 2026-04-30 20:40 | 46.07563 | 10.77569 | 30271 ft | 449 kts | 18° |
| 2026-04-30 20:41 | 46.21392 | 10.86525 | 30264 ft | 446 kts | 18° |
| 2026-04-30 20:42 | 46.26982 | 10.90161 | 30264 ft | 444 kts | 17° |
| 2026-04-30 20:43 | 46.35321 | 10.95598 | 30265 ft | 441 kts | 17° |
| 2026-04-30 20:43 | 46.40689 | 10.99109 | 30264 ft | 439 kts | 17° |
| 2026-04-30 20:44 | 46.48947 | 11.04523 | 30263 ft | 436 kts | 17° |
| 2026-04-30 20:45 | 46.59830 | 11.11685 | 30263 ft | 437 kts | 17° |
| 2026-04-30 20:45 | 46.65282 | 11.15286 | 30262 ft | 436 kts | 17° |
| 2026-04-30 20:46 | 46.76240 | 11.22546 | 30271 ft | 436 kts | 17° |
| 2026-04-30 20:47 | 46.84412 | 11.28016 | 30298 ft | 436 kts | 18° |
| 2026-04-30 20:48 | 46.92583 | 11.33677 | 30316 ft | 437 kts | 17° |
| 2026-04-30 20:48 | 46.98157 | 11.36812 | 30323 ft | 425 kts | 4° |
| 2026-04-30 20:49 | 47.03890 | 11.37431 | 30317 ft | 414 kts | 352° |
| 2026-04-30 20:50 | 47.12192 | 11.37439 | 30325 ft | 413 kts | 351° |
| 2026-04-30 20:50 | 47.17300 | 11.37406 | 30325 ft | 413 kts | 351° |
| 2026-04-30 20:51 | 47.23066 | 11.37357 | 30324 ft | 413 kts | 351° |
| 2026-04-30 20:51 | 47.31657 | 11.37276 | 30323 ft | 413 kts | 351° |
| 2026-04-30 20:52 | 47.37350 | 11.37221 | 30322 ft | 413 kts | 351° |
| 2026-04-30 20:53 | 47.45946 | 11.37137 | 30322 ft | 413 kts | 351° |
| 2026-04-30 20:53 | 47.51707 | 11.37080 | 30321 ft | 413 kts | 351° |
| 2026-04-30 20:54 | 47.60326 | 11.36995 | 30327 ft | 413 kts | 351° |
| 2026-04-30 20:55 | 47.68894 | 11.36910 | 30336 ft | 413 kts | 351° |
| 2026-04-30 20:55 | 47.74621 | 11.36853 | 30339 ft | 413 kts | 351° |
| 2026-04-30 20:56 | 47.83174 | 11.36768 | 30344 ft | 413 kts | 351° |
| 2026-04-30 20:57 | 47.91676 | 11.36013 | 30345 ft | 407 kts | 346° |
| 2026-04-30 20:57 | 47.97279 | 11.35110 | 30343 ft | 407 kts | 346° |
| 2026-04-30 20:58 | 48.05667 | 11.33830 | 30342 ft | 408 kts | 346° |
| 2026-04-30 20:58 | 48.11165 | 11.33005 | 30348 ft | 408 kts | 346° |
| 2026-04-30 20:59 | 48.19568 | 11.31752 | 30351 ft | 408 kts | 346° |